»·PEaware :: N48427 KOLM-KAWO

N48427 :: KOLM-KAWO

FLIGHT INFORMATION

Flight Status: Arrived
Operator: Privately registered:
United States
More flights under this callsign
Pilot: Aleksander S. (18457)
Aircraft: Unknown
(P28U)
More flights by this aircraft type
Origin: KOLM Olympia
United States
Destination: KAWO Arlington Mun
United States
More flights between these airports :: More routes between these airports
Route: PPAUL COSTO GIRTE
File this flight plan on PilotEdge
Remarks: request clearance for class B VFR transition route
Altitude:
(Current/Filed)
2,500ft
Speed:
(Current/Filed)
140kts
Departed: 09-Mar-18 04:58 PM
Arrived: 09-Mar-18 05:43 PM
Distance/Time
Traveled:
78nm/0:45
Distance/Time
To Go:
Arrived

Flight Plot

Page will automatically refresh every two minutes.

Flight plan parsing failed; only flown route is shown


Map Options




Map Legend


Flown Route
Filed Route
Departure Airport
Arrival Airport
Navaid (VOR, NDB)
Fix

Horizontal Profiles

Position Reports

Time Latitude Longitude Heading Altitude Ground
Speed
09-Mar-18 16:35 46.975500 -122.899097 280 196ft 0kts
09-Mar-18 16:36 46.975500 -122.899097 280 196ft 0kts
09-Mar-18 16:38 46.975500 -122.899097 280 196ft 0kts
09-Mar-18 16:39 46.975500 -122.899097 280 196ft 0kts
09-Mar-18 16:40 46.975500 -122.899097 280 196ft 0kts
09-Mar-18 16:47 46.975500 -122.899097 280 196ft 0kts
09-Mar-18 16:48 46.975500 -122.899097 280 196ft 0kts
09-Mar-18 16:49 46.975500 -122.899097 280 196ft 0kts
09-Mar-18 16:50 46.975500 -122.899097 280 196ft 0kts
09-Mar-18 16:51 46.975500 -122.899097 280 196ft 0kts
09-Mar-18 16:52 46.975500 -122.899097 280 196ft 0kts
09-Mar-18 16:53 46.975449 -122.899380 225 196ft 2kts
09-Mar-18 16:54 46.975904 -122.900910 279 195ft 4kts
09-Mar-18 16:55 46.975986 -122.901567 281 195ft 0kts
09-Mar-18 16:56 46.976066 -122.902023 274 194ft 5kts
09-Mar-18 16:57 46.966988 -122.905086 187 377ft 85kts
09-Mar-18 16:58 46.949411 -122.921221 308 1478ft 101kts
09-Mar-18 16:59 46.974754 -122.935386 344 2354ft 103kts
09-Mar-18 17:00 47.002832 -122.947496 344 2621ft 113kts
09-Mar-18 17:01 47.031485 -122.955503 27 2620ft 113kts
09-Mar-18 17:02 47.046257 -122.911370 68 2477ft 144kts
09-Mar-18 17:03 47.059644 -122.861532 68 2492ft 142kts
09-Mar-18 17:04 47.073033 -122.811816 66 2491ft 142kts
09-Mar-18 17:05 47.095503 -122.767595 43 2491ft 140kts
09-Mar-18 17:06 47.115921 -122.740926 38 2492ft 139kts
09-Mar-18 17:07 47.145507 -122.706424 36 2494ft 140kts
09-Mar-18 17:08 47.175284 -122.672783 36 2493ft 149kts
09-Mar-18 17:09 47.201236 -122.643688 36 2493ft 150kts
09-Mar-18 17:10 47.233368 -122.607713 36 2493ft 150kts
09-Mar-18 17:11 47.264484 -122.572886 36 2492ft 151kts
09-Mar-18 17:12 47.296134 -122.550040 5 2490ft 151kts
09-Mar-18 17:13 47.336546 -122.545324 3 2492ft 151kts
09-Mar-18 17:14 47.377234 -122.540864 3 2492ft 151kts
09-Mar-18 17:15 47.418088 -122.536437 3 2492ft 151kts
09-Mar-18 17:16 47.458270 -122.531990 3 2494ft 151kts
09-Mar-18 17:17 47.498456 -122.525831 0 2497ft 147kts
09-Mar-18 17:18 47.538116 -122.522852 2 2487ft 147kts
09-Mar-18 17:19 47.577780 -122.518812 2 2494ft 148kts
09-Mar-18 17:20 47.617505 -122.515027 2 2492ft 147kts
09-Mar-18 17:21 47.656977 -122.511557 2 2492ft 146kts
09-Mar-18 17:22 47.694794 -122.508239 2 2492ft 145kts
09-Mar-18 17:23 47.733137 -122.504923 1 2492ft 145kts
09-Mar-18 17:24 47.769661 -122.488137 6 2491ft 144kts
09-Mar-18 17:25 47.807335 -122.483420 3 2493ft 144kts
09-Mar-18 17:26 47.845008 -122.477955 16 2493ft 145kts
09-Mar-18 17:27 47.882142 -122.459595 16 2492ft 145kts
09-Mar-18 17:28 47.918404 -122.441566 16 2492ft 145kts
09-Mar-18 17:29 47.952379 -122.413464 36 2493ft 146kts
09-Mar-18 17:30 47.983329 -122.376956 36 2492ft 146kts
09-Mar-18 17:31 48.011750 -122.343269 37 2492ft 146kts
09-Mar-18 17:32 48.042019 -122.307013 37 2491ft 140kts
09-Mar-18 17:33 48.070829 -122.272460 37 2492ft 139kts
09-Mar-18 17:34 48.098643 -122.237913 42 2487ft 126kts
09-Mar-18 17:35 48.116352 -122.209072 47 2489ft 94kts
09-Mar-18 17:36 48.131299 -122.179856 52 2286ft 98kts
09-Mar-18 17:37 48.145309 -122.145495 52 1537ft 94kts
09-Mar-18 17:38 48.163831 -122.133797 2 1144ft 86kts
09-Mar-18 17:38 48.182833 -122.131584 1 1240ft 82kts
09-Mar-18 17:40 48.191574 -122.155180 236 1033ft 81kts
09-Mar-18 17:40 48.175542 -122.156639 186 301ft 74kts
09-Mar-18 17:42 48.164425 -122.156136 113 137ft 4kts
09-Mar-18 17:43 48.164215 -122.154352 179 137ft 6kts
09-Mar-18 17:44 48.160959 -122.154280 180 135ft 5kts
09-Mar-18 17:44 48.160384 -122.153535 139 135ft 3kts
09-Mar-18 17:45 48.160146 -122.153102 86 135ft 0kts
09-Mar-18 17:46 48.160146 -122.153102 86 135ft 0kts
09-Mar-18 17:47 48.160146 -122.153102 86 135ft 0kts
09-Mar-18 17:49 48.160146 -122.153102 86 135ft 0kts

Navigation Log

Ident Type
Flight plan parsing failed, navigation log unavailable